sensor_id;sensor_type;location;lat;lon;timestamp;temperature;humidity
43414;DHT22;29013;49.676;8.606;2023-06-22T00:04:57;24.4;93.0
43414;DHT22;29013;49.676;8.606;2023-06-22T00:10:22;24.4;93.2
43414;DHT22;29013;49.676;8.606;2023-06-22T00:15:47;24.3;93.3
43414;DHT22;29013;49.676;8.606;2023-06-22T00:21:05;24.3;93.9
43414;DHT22;29013;49.676;8.606;2023-06-22T00:26:24;24.2;94.3
43414;DHT22;29013;49.676;8.606;2023-06-22T00:31:42;24.1;94.7
43414;DHT22;29013;49.676;8.606;2023-06-22T00:37:03;23.9;95.3
43414;DHT22;29013;49.676;8.606;2023-06-22T00:42:28;23.8;95.3
43414;DHT22;29013;49.676;8.606;2023-06-22T00:47:55;23.8;95.7
43414;DHT22;29013;49.676;8.606;2023-06-22T00:53:18;23.8;95.5
43414;DHT22;29013;49.676;8.606;2023-06-22T00:58:42;23.9;95.9
43414;DHT22;29013;49.676;8.606;2023-06-22T01:04:07;23.9;96.4
43414;DHT22;29013;49.676;8.606;2023-06-22T01:09:33;23.8;96.8
43414;DHT22;29013;49.676;8.606;2023-06-22T01:14:58;23.8;97.9
43414;DHT22;29013;49.676;8.606;2023-06-22T01:25:59;23.4;99.9
43414;DHT22;29013;49.676;8.606;2023-06-22T01:31:48;23.2;99.9
43414;DHT22;29013;49.676;8.606;2023-06-22T01:37:11;23.2;99.9
43414;DHT22;29013;49.676;8.606;2023-06-22T01:42:36;23.1;99.9
43414;DHT22;29013;49.676;8.606;2023-06-22T01:48:14;23.0;99.9
43414;DHT22;29013;49.676;8.606;2023-06-22T01:53:34;23.1;99.9
43414;DHT22;29013;49.676;8.606;2023-06-22T01:59:01;22.9;99.9
43414;DHT22;29013;49.676;8.606;2023-06-22T02:04:26;22.9;99.9
43414;DHT22;29013;49.676;8.606;2023-06-22T02:09:51;22.8;99.9
43414;DHT22;29013;49.676;8.606;2023-06-22T02:15:14;22.7;99.9
43414;DHT22;29013;49.676;8.606;2023-06-22T02:20:40;22.5;99.9
43414;DHT22;29013;49.676;8.606;2023-06-22T02:26:03;22.4;99.9
43414;DHT22;29013;49.676;8.606;2023-06-22T02:31:28;22.3;99.9
43414;DHT22;29013;49.676;8.606;2023-06-22T02:36:50;22.2;99.9
43414;DHT22;29013;49.676;8.606;2023-06-22T02:42:14;22.1;99.9
43414;DHT22;29013;49.676;8.606;2023-06-22T02:47:37;22.1;99.9
43414;DHT22;29013;49.676;8.606;2023-06-22T02:53:01;22.1;99.9
43414;DHT22;29013;49.676;8.606;2023-06-22T02:58:23;22.0;99.9
43414;DHT22;29013;49.676;8.606;2023-06-22T03:03:48;21.9;99.9
43414;DHT22;29013;49.676;8.606;2023-06-22T03:09:13;21.9;99.9
43414;DHT22;29013;49.676;8.606;2023-06-22T03:14:38;21.7;99.9
43414;DHT22;29013;49.676;8.606;2023-06-22T03:20:03;21.7;99.9
43414;DHT22;29013;49.676;8.606;2023-06-22T03:25:25;21.6;99.9
43414;DHT22;29013;49.676;8.606;2023-06-22T03:30:44;21.7;99.9
43414;DHT22;29013;49.676;8.606;2023-06-22T03:36:09;21.7;99.9
43414;DHT22;29013;49.676;8.606;2023-06-22T03:41:30;21.7;99.9
43414;DHT22;29013;49.676;8.606;2023-06-22T03:46:55;21.6;99.9
43414;DHT22;29013;49.676;8.606;2023-06-22T03:52:21;21.6;99.9
43414;DHT22;29013;49.676;8.606;2023-06-22T03:57:39;21.7;99.9
43414;DHT22;29013;49.676;8.606;2023-06-22T04:03:00;21.7;99.9
43414;DHT22;29013;49.676;8.606;2023-06-22T04:08:25;21.7;99.9
43414;DHT22;29013;49.676;8.606;2023-06-22T04:13:48;21.8;99.9
43414;DHT22;29013;49.676;8.606;2023-06-22T04:19:14;21.9;99.9
43414;DHT22;29013;49.676;8.606;2023-06-22T04:24:38;21.9;99.9
43414;DHT22;29013;49.676;8.606;2023-06-22T04:30:01;21.9;99.9
43414;DHT22;29013;49.676;8.606;2023-06-22T04:35:26;22.0;99.9
43414;DHT22;29013;49.676;8.606;2023-06-22T04:40:51;22.0;99.9
43414;DHT22;29013;49.676;8.606;2023-06-22T04:46:15;22.0;99.9
43414;DHT22;29013;49.676;8.606;2023-06-22T04:51:42;22.0;99.9
43414;DHT22;29013;49.676;8.606;2023-06-22T04:57:07;22.0;99.9
43414;DHT22;29013;49.676;8.606;2023-06-22T05:02:33;22.1;99.9
43414;DHT22;29013;49.676;8.606;2023-06-22T05:08:00;22.1;99.9
43414;DHT22;29013;49.676;8.606;2023-06-22T05:13:22;22.1;99.9
43414;DHT22;29013;49.676;8.606;2023-06-22T05:18:46;22.2;99.9
43414;DHT22;29013;49.676;8.606;2023-06-22T05:24:11;22.2;99.9
43414;DHT22;29013;49.676;8.606;2023-06-22T05:29:36;22.3;99.9
43414;DHT22;29013;49.676;8.606;2023-06-22T05:34:58;22.3;99.9
43414;DHT22;29013;49.676;8.606;2023-06-22T05:40:23;22.4;99.9
43414;DHT22;29013;49.676;8.606;2023-06-22T05:45:47;22.5;99.9
43414;DHT22;29013;49.676;8.606;2023-06-22T05:51:11;22.7;99.9
43414;DHT22;29013;49.676;8.606;2023-06-22T05:56:36;22.8;99.9
43414;DHT22;29013;49.676;8.606;2023-06-22T06:02:02;23.0;99.9
43414;DHT22;29013;49.676;8.606;2023-06-22T06:07:27;23.1;99.9
43414;DHT22;29013;49.676;8.606;2023-06-22T06:12:51;23.4;99.9
43414;DHT22;29013;49.676;8.606;2023-06-22T06:18:15;23.5;99.9
43414;DHT22;29013;49.676;8.606;2023-06-22T06:23:38;23.7;99.9
43414;DHT22;29013;49.676;8.606;2023-06-22T06:29:03;23.8;99.9
43414;DHT22;29013;49.676;8.606;2023-06-22T06:34:42;24.0;99.9
43414;DHT22;29013;49.676;8.606;2023-06-22T06:40:06;24.3;99.9
43414;DHT22;29013;49.676;8.606;2023-06-22T06:45:26;24.6;99.9
43414;DHT22;29013;49.676;8.606;2023-06-22T06:50:48;24.7;99.9
43414;DHT22;29013;49.676;8.606;2023-06-22T06:56:10;24.9;99.9
43414;DHT22;29013;49.676;8.606;2023-06-22T07:01:32;25.1;99.9
43414;DHT22;29013;49.676;8.606;2023-06-22T07:06:58;25.2;99.9
43414;DHT22;29013;49.676;8.606;2023-06-22T07:12:22;25.2;99.9
43414;DHT22;29013;49.676;8.606;2023-06-22T07:17:47;25.3;99.9
43414;DHT22;29013;49.676;8.606;2023-06-22T07:23:10;25.3;99.9
43414;DHT22;29013;49.676;8.606;2023-06-22T07:28:28;25.4;99.9
43414;DHT22;29013;49.676;8.606;2023-06-22T07:33:48;25.4;99.6
43414;DHT22;29013;49.676;8.606;2023-06-22T07:39:10;25.5;99.5
43414;DHT22;29013;49.676;8.606;2023-06-22T07:44:34;25.6;99.3
43414;DHT22;29013;49.676;8.606;2023-06-22T07:49:59;25.7;99.2
43414;DHT22;29013;49.676;8.606;2023-06-22T07:55:23;25.8;98.9
43414;DHT22;29013;49.676;8.606;2023-06-22T08:00:48;25.9;98.7
43414;DHT22;29013;49.676;8.606;2023-06-22T08:06:13;26.0;98.4
43414;DHT22;29013;49.676;8.606;2023-06-22T08:12:22;26.1;98.2
43414;DHT22;29013;49.676;8.606;2023-06-22T08:17:45;26.4;97.6
43414;DHT22;29013;49.676;8.606;2023-06-22T08:23:11;26.5;97.6
43414;DHT22;29013;49.676;8.606;2023-06-22T08:28:50;26.6;97.5
43414;DHT22;29013;49.676;8.606;2023-06-22T08:34:11;26.8;96.5
43414;DHT22;29013;49.676;8.606;2023-06-22T08:39:56;26.9;96.6
43414;DHT22;29013;49.676;8.606;2023-06-22T08:45:41;27.1;96.8
43414;DHT22;29013;49.676;8.606;2023-06-22T08:51:05;27.3;96.3
43414;DHT22;29013;49.676;8.606;2023-06-22T08:56:27;27.5;95.6
43414;DHT22;29013;49.676;8.606;2023-06-22T09:01:53;27.7;95.0
43414;DHT22;29013;49.676;8.606;2023-06-22T09:07:38;27.8;94.9
43414;DHT22;29013;49.676;8.606;2023-06-22T09:13:01;28.2;94.9
43414;DHT22;29013;49.676;8.606;2023-06-22T09:18:21;28.5;94.7
43414;DHT22;29013;49.676;8.606;2023-06-22T09:23:40;28.4;94.3
43414;DHT22;29013;49.676;8.606;2023-06-22T09:29:21;28.2;94.4
43414;DHT22;29013;49.676;8.606;2023-06-22T09:34:44;28.6;93.9
43414;DHT22;29013;49.676;8.606;2023-06-22T09:40:12;28.9;93.9
43414;DHT22;29013;49.676;8.606;2023-06-22T09:45:33;29.1;93.7
43414;DHT22;29013;49.676;8.606;2023-06-22T09:50:58;29.2;93.1
43414;DHT22;29013;49.676;8.606;2023-06-22T09:56:21;29.4;92.9
43414;DHT22;29013;49.676;8.606;2023-06-22T10:01:42;29.3;92.4
43414;DHT22;29013;49.676;8.606;2023-06-22T10:07:28;29.3;92.6
43414;DHT22;29013;49.676;8.606;2023-06-22T10:12:48;29.6;92.5
43414;DHT22;29013;49.676;8.606;2023-06-22T10:18:12;29.7;92.1
43414;DHT22;29013;49.676;8.606;2023-06-22T10:23:38;29.8;91.3
43414;DHT22;29013;49.676;8.606;2023-06-22T10:29:03;30.0;91.0
43414;DHT22;29013;49.676;8.606;2023-06-22T10:34:27;30.0;91.1
43414;DHT22;29013;49.676;8.606;2023-06-22T10:39:53;30.1;90.8
43414;DHT22;29013;49.676;8.606;2023-06-22T10:45:19;30.3;90.2
43414;DHT22;29013;49.676;8.606;2023-06-22T10:50:44;30.5;90.1
43414;DHT22;29013;49.676;8.606;2023-06-22T10:56:06;30.5;89.3
43414;DHT22;29013;49.676;8.606;2023-06-22T11:01:28;30.8;89.7
43414;DHT22;29013;49.676;8.606;2023-06-22T11:06:51;31.0;88.5
43414;DHT22;29013;49.676;8.606;2023-06-22T11:12:15;31.1;88.6
43414;DHT22;29013;49.676;8.606;2023-06-22T11:17:41;31.3;87.1
43414;DHT22;29013;49.676;8.606;2023-06-22T11:23:16;31.3;87.4
43414;DHT22;29013;49.676;8.606;2023-06-22T11:28:40;31.5;85.6
43414;DHT22;29013;49.676;8.606;2023-06-22T11:34:05;31.7;85.7
43414;DHT22;29013;49.676;8.606;2023-06-22T11:39:27;32.0;85.4
43414;DHT22;29013;49.676;8.606;2023-06-22T11:44:52;32.3;83.7
43414;DHT22;29013;49.676;8.606;2023-06-22T11:50:43;32.5;82.0
43414;DHT22;29013;49.676;8.606;2023-06-22T11:56:08;32.7;80.6
43414;DHT22;29013;49.676;8.606;2023-06-22T12:01:33;32.7;80.6
43414;DHT22;29013;49.676;8.606;2023-06-22T12:06:58;32.6;80.0
43414;DHT22;29013;49.676;8.606;2023-06-22T12:12:23;32.5;80.3
43414;DHT22;29013;49.676;8.606;2023-06-22T12:17:44;32.7;80.0
43414;DHT22;29013;49.676;8.606;2023-06-22T12:23:09;32.9;80.1
43414;DHT22;29013;49.676;8.606;2023-06-22T12:28:31;32.9;79.0
43414;DHT22;29013;49.676;8.606;2023-06-22T12:33:55;32.9;77.7
43414;DHT22;29013;49.676;8.606;2023-06-22T12:39:20;33.0;78.4
43414;DHT22;29013;49.676;8.606;2023-06-22T12:44:42;33.2;76.5
43414;DHT22;29013;49.676;8.606;2023-06-22T12:50:09;33.5;77.2
43414;DHT22;29013;49.676;8.606;2023-06-22T12:55:34;33.8;75.4
43414;DHT22;29013;49.676;8.606;2023-06-22T13:01:17;33.8;75.7
43414;DHT22;29013;49.676;8.606;2023-06-22T13:06:41;33.9;75.4
43414;DHT22;29013;49.676;8.606;2023-06-22T13:12:07;33.9;76.0
43414;DHT22;29013;49.676;8.606;2023-06-22T13:17:32;33.9;75.1
43414;DHT22;29013;49.676;8.606;2023-06-22T13:22:56;33.8;73.4
43414;DHT22;29013;49.676;8.606;2023-06-22T13:28:21;33.8;73.1
43414;DHT22;29013;49.676;8.606;2023-06-22T13:33:46;34.0;73.5
43414;DHT22;29013;49.676;8.606;2023-06-22T13:39:12;33.9;72.2
43414;DHT22;29013;49.676;8.606;2023-06-22T13:44:36;34.0;73.3
43414;DHT22;29013;49.676;8.606;2023-06-22T13:50:15;34.1;69.8
43414;DHT22;29013;49.676;8.606;2023-06-22T13:55:36;34.4;70.8
43414;DHT22;29013;49.676;8.606;2023-06-22T14:00:59;34.4;71.3
43414;DHT22;29013;49.676;8.606;2023-06-22T14:07:08;34.5;71.9
43414;DHT22;29013;49.676;8.606;2023-06-22T14:12:32;34.8;70.5
43414;DHT22;29013;49.676;8.606;2023-06-22T14:17:56;34.5;70.9
43414;DHT22;29013;49.676;8.606;2023-06-22T14:23:36;34.5;70.9
43414;DHT22;29013;49.676;8.606;2023-06-22T14:29:01;34.3;70.1
43414;DHT22;29013;49.676;8.606;2023-06-22T14:34:19;33.9;71.2
43414;DHT22;29013;49.676;8.606;2023-06-22T14:39:40;33.5;70.9
43414;DHT22;29013;49.676;8.606;2023-06-22T14:45:03;33.2;71.7
43414;DHT22;29013;49.676;8.606;2023-06-22T14:50:28;33.2;71.8
43414;DHT22;29013;49.676;8.606;2023-06-22T14:55:50;33.6;71.8
43414;DHT22;29013;49.676;8.606;2023-06-22T15:01:14;34.1;71.3
43414;DHT22;29013;49.676;8.606;2023-06-22T15:06:38;34.3;69.3
43414;DHT22;29013;49.676;8.606;2023-06-22T15:11:57;34.4;68.0
43414;DHT22;29013;49.676;8.606;2023-06-22T15:17:23;34.4;67.5
43414;DHT22;29013;49.676;8.606;2023-06-22T15:22:47;34.3;66.2
43414;DHT22;29013;49.676;8.606;2023-06-22T15:28:08;34.2;68.2
43414;DHT22;29013;49.676;8.606;2023-06-22T15:33:31;34.3;68.5
43414;DHT22;29013;49.676;8.606;2023-06-22T15:38:55;34.6;69.6
43414;DHT22;29013;49.676;8.606;2023-06-22T15:44:19;34.6;69.3
43414;DHT22;29013;49.676;8.606;2023-06-22T15:49:43;33.9;67.9
43414;DHT22;29013;49.676;8.606;2023-06-22T15:55:10;33.1;69.8
43414;DHT22;29013;49.676;8.606;2023-06-22T16:00:32;32.6;68.4
43414;DHT22;29013;49.676;8.606;2023-06-22T16:05:55;32.0;71.6
43414;DHT22;29013;49.676;8.606;2023-06-22T16:11:33;31.6;73.6
43414;DHT22;29013;49.676;8.606;2023-06-22T16:16:52;31.4;73.8
43414;DHT22;29013;49.676;8.606;2023-06-22T16:22:16;31.2;74.7
43414;DHT22;29013;49.676;8.606;2023-06-22T16:27:37;31.0;75.5
43414;DHT22;29013;49.676;8.606;2023-06-22T16:32:59;31.0;75.3
43414;DHT22;29013;49.676;8.606;2023-06-22T16:38:23;30.9;75.3
43414;DHT22;29013;49.676;8.606;2023-06-22T16:44:09;30.8;76.2
43414;DHT22;29013;49.676;8.606;2023-06-22T16:49:34;30.7;76.0
43414;DHT22;29013;49.676;8.606;2023-06-22T16:54:57;30.4;75.9
43414;DHT22;29013;49.676;8.606;2023-06-22T17:00:22;30.2;76.3
43414;DHT22;29013;49.676;8.606;2023-06-22T17:05:47;30.0;75.4
43414;DHT22;29013;49.676;8.606;2023-06-22T17:11:34;29.0;75.2
43414;DHT22;29013;49.676;8.606;2023-06-22T17:16:58;28.7;74.9
43414;DHT22;29013;49.676;8.606;2023-06-22T17:22:22;28.7;75.3
43414;DHT22;29013;49.676;8.606;2023-06-22T17:27:48;28.8;73.3
43414;DHT22;29013;49.676;8.606;2023-06-22T17:33:09;28.8;73.0
43414;DHT22;29013;49.676;8.606;2023-06-22T17:38:33;28.8;72.7
43414;DHT22;29013;49.676;8.606;2023-06-22T17:43:57;28.8;72.7
43414;DHT22;29013;49.676;8.606;2023-06-22T17:49:37;30.6;71.7
43414;DHT22;29013;49.676;8.606;2023-06-22T17:54:56;30.8;70.1
43414;DHT22;29013;49.676;8.606;2023-06-22T18:00:22;30.7;70.0
43414;DHT22;29013;49.676;8.606;2023-06-22T18:05:45;30.8;69.3
43414;DHT22;29013;49.676;8.606;2023-06-22T18:11:02;30.6;69.3
43414;DHT22;29013;49.676;8.606;2023-06-22T18:16:20;30.4;69.5
43414;DHT22;29013;49.676;8.606;2023-06-22T18:21:59;30.0;69.8
43414;DHT22;29013;49.676;8.606;2023-06-22T18:27:20;29.9;70.0
43414;DHT22;29013;49.676;8.606;2023-06-22T18:32:59;29.5;70.9
43414;DHT22;29013;49.676;8.606;2023-06-22T18:38:22;29.3;70.5
43414;DHT22;29013;49.676;8.606;2023-06-22T18:43:42;29.0;71.0
43414;DHT22;29013;49.676;8.606;2023-06-22T18:49:12;28.7;71.4
43414;DHT22;29013;49.676;8.606;2023-06-22T18:54:38;28.6;72.2
43414;DHT22;29013;49.676;8.606;2023-06-22T19:00:03;28.4;72.8
43414;DHT22;29013;49.676;8.606;2023-06-22T19:05:38;28.2;73.3
43414;DHT22;29013;49.676;8.606;2023-06-22T19:11:12;28.2;73.7
43414;DHT22;29013;49.676;8.606;2023-06-22T19:16:32;28.1;74.0
43414;DHT22;29013;49.676;8.606;2023-06-22T19:22:01;28.1;74.6
43414;DHT22;29013;49.676;8.606;2023-06-22T19:27:21;28.0;74.9
43414;DHT22;29013;49.676;8.606;2023-06-22T19:32:45;27.9;75.7
43414;DHT22;29013;49.676;8.606;2023-06-22T19:38:14;27.7;76.5
43414;DHT22;29013;49.676;8.606;2023-06-22T19:43:30;27.5;76.6
43414;DHT22;29013;49.676;8.606;2023-06-22T19:48:53;27.3;76.6
43414;DHT22;29013;49.676;8.606;2023-06-22T19:54:38;27.1;77.6
43414;DHT22;29013;49.676;8.606;2023-06-22T19:59:56;27.1;77.2
43414;DHT22;29013;49.676;8.606;2023-06-22T20:05:21;26.9;78.6
43414;DHT22;29013;49.676;8.606;2023-06-22T20:10:41;26.8;78.7
43414;DHT22;29013;49.676;8.606;2023-06-22T20:16:12;26.6;79.3
43414;DHT22;29013;49.676;8.606;2023-06-22T20:21:35;26.3;79.6
43414;DHT22;29013;49.676;8.606;2023-06-22T20:26:58;25.9;81.1
43414;DHT22;29013;49.676;8.606;2023-06-22T20:32:18;25.6;81.6
43414;DHT22;29013;49.676;8.606;2023-06-22T20:37:39;25.4;82.7
43414;DHT22;29013;49.676;8.606;2023-06-22T20:43:02;25.3;83.4
43414;DHT22;29013;49.676;8.606;2023-06-22T20:48:26;25.0;84.2
43414;DHT22;29013;49.676;8.606;2023-06-22T20:53:49;24.8;84.6
43414;DHT22;29013;49.676;8.606;2023-06-22T20:59:12;24.7;85.4
43414;DHT22;29013;49.676;8.606;2023-06-22T21:04:30;24.6;85.7
43414;DHT22;29013;49.676;8.606;2023-06-22T21:09:52;24.5;86.4
43414;DHT22;29013;49.676;8.606;2023-06-22T21:15:16;24.5;87.0
43414;DHT22;29013;49.676;8.606;2023-06-22T21:20:39;24.4;87.1
43414;DHT22;29013;49.676;8.606;2023-06-22T21:26:04;24.3;87.4
43414;DHT22;29013;49.676;8.606;2023-06-22T21:31:29;24.2;87.1
43414;DHT22;29013;49.676;8.606;2023-06-22T21:36:50;24.2;87.1
43414;DHT22;29013;49.676;8.606;2023-06-22T21:42:15;24.1;86.8
43414;DHT22;29013;49.676;8.606;2023-06-22T21:47:39;24.1;87.0
43414;DHT22;29013;49.676;8.606;2023-06-22T21:53:06;24.0;86.9
43414;DHT22;29013;49.676;8.606;2023-06-22T21:58:30;24.0;87.3
43414;DHT22;29013;49.676;8.606;2023-06-22T22:03:53;24.0;87.4
43414;DHT22;29013;49.676;8.606;2023-06-22T22:09:13;24.0;87.4
43414;DHT22;29013;49.676;8.606;2023-06-22T22:14:36;23.9;87.5
43414;DHT22;29013;49.676;8.606;2023-06-22T22:19:55;23.9;87.8
43414;DHT22;29013;49.676;8.606;2023-06-22T22:25:19;23.8;87.9
43414;DHT22;29013;49.676;8.606;2023-06-22T22:30:43;23.8;88.3
43414;DHT22;29013;49.676;8.606;2023-06-22T22:36:07;23.7;88.6
43414;DHT22;29013;49.676;8.606;2023-06-22T22:41:32;23.7;89.0
43414;DHT22;29013;49.676;8.606;2023-06-22T22:46:53;23.7;89.3
43414;DHT22;29013;49.676;8.606;2023-06-22T22:52:20;23.6;89.5
43414;DHT22;29013;49.676;8.606;2023-06-22T22:57:45;23.5;89.5
43414;DHT22;29013;49.676;8.606;2023-06-22T23:03:09;23.4;89.9
43414;DHT22;29013;49.676;8.606;2023-06-22T23:08:34;23.1;90.3
43414;DHT22;29013;49.676;8.606;2023-06-22T23:13:59;22.8;91.2
43414;DHT22;29013;49.676;8.606;2023-06-22T23:19:21;22.4;91.7
43414;DHT22;29013;49.676;8.606;2023-06-22T23:24:45;22.0;92.2
43414;DHT22;29013;49.676;8.606;2023-06-22T23:30:24;21.8;92.8
43414;DHT22;29013;49.676;8.606;2023-06-22T23:35:46;21.7;93.1
43414;DHT22;29013;49.676;8.606;2023-06-22T23:41:11;21.5;93.5
43414;DHT22;29013;49.676;8.606;2023-06-22T23:46:36;21.5;93.7
43414;DHT22;29013;49.676;8.606;2023-06-22T23:52:01;21.5;93.9
43414;DHT22;29013;49.676;8.606;2023-06-22T23:57:28;21.5;93.8
